Lions Gate Bridge — H9LV — position and weather

sailwx.info

Track history (hours):
 
Tides and Currents Weather Stations Pressure Air Temp Water Temp Dewpoint Dewpoint Depression Visibility Wind Speed Wind Dir Waves Ship Positions

Lions Gate Bridge

Last reported at 2014-Dec-15 21:00 UTC. Time now 2014-Dec-19 03:58 UTC.
Position N 54°36' W 168°18'.

Length 284.7 m; beam 40 m.

Type: Cargo ship. MMSI: 351086000.

Wind from 250 at 26 knots

Barometer 986.4 mb
Air temperature 3.0 ° C
Visibility: greater than 5.4 NM
Dewpoint -1.0 ° C

Date/timePositionNaut miles runAvg speedWind from/ knotsBaromVisibWave heightAir tempDewpointWater temp
2014-Dec-15 21:00N 54°36' W 168°18'   250 / 26986.4 5.4 3.0-1.0
2014-Dec-11 14:17N 48°41' W 126°47'1316.7
2014-Dec-11 13:32N 48°39' W 126°28'1716.8
2014-Dec-11 12:33N 48°36' W 126°04'1716.8
2014-Dec-11 11:33N 48°33' W 125°39'1616.3
2014-Dec-11 10:33N 48°31' W 125°15'1616.1
2014-Dec-11 09:33N 48°31' W 124°50'1615.9
2014-Dec-11 08:33N 48°26' W 124°27'1818.4
2014-Dec-11 07:33N 48°19' W 124°02'2019.4
2014-Dec-11 06:33N 48°15' W 123°33'1212.5
2014-Dec-11 05:33N 48°23' W 123°18'1616.0
2014-Dec-11 04:33N 48°39' W 123°15'1413.8
2014-Dec-11 03:34N 48°51' W 123°04'1818.0
2014-Dec-11 02:34N 49°03' W 123°23'1716.5
2014-Dec-11 01:33N 49°19' W 123°16'8 7.7
2014-Dec-11 00:33N 49°17' W 123°05'0 0.0
2014-Dec-10 23:33N 49°17' W 123°05'0 0.0
2014-Dec-10 22:33N 49°17' W 123°05'0 0.0
2014-Dec-10 21:33N 49°17' W 123°05'0 0.0
2014-Dec-10 20:33N 49°17' W 123°05'0 0.0
2014-Dec-10 19:33N 49°17' W 123°05'0 0.0
2014-Dec-10 18:33N 49°17' W 123°05'0 0.0
2014-Dec-10 17:33N 49°17' W 123°05'0 0.0
2014-Dec-10 16:33N 49°17' W 123°05'0 0.0
2014-Dec-10 15:33N 49°17' W 123°05'0 0.0
2014-Dec-10 14:33N 49°17' W 123°05'0 0.0
2014-Dec-10 13:33N 49°17' W 123°05'0 0.0
2014-Dec-10 12:33N 49°17' W 123°05'0 0.0
2014-Dec-10 11:33N 49°17' W 123°05'0 0.0
2014-Dec-10 10:33N 49°17' W 123°05'0 0.0
2014-Dec-10 09:33N 49°17' W 123°05'0 0.0
2014-Dec-10 08:33N 49°17' W 123°05'0 0.0
2014-Dec-10 07:33N 49°17' W 123°05'0 0.0
2014-Dec-10 06:33N 49°17' W 123°05'0 0.0
2014-Dec-10 05:33N 49°17' W 123°05'0 0.0
2014-Dec-10 04:33N 49°17' W 123°05'0 0.0
2014-Dec-10 03:33N 49°17' W 123°05'0 0.0
2014-Dec-10 02:33N 49°17' W 123°05'0 0.0
2014-Dec-10 01:33N 49°17' W 123°05'0 0.0
2014-Dec-10 00:33N 49°17' W 123°05'0 0.0
2014-Dec-09 23:33N 49°17' W 123°05'3 3.0
2014-Dec-09 22:33N 49°19' W 123°08'1514.8
2014-Dec-09 21:33N 49°06' W 123°20'2120.7
2014-Dec-09 20:33N 48°50' W 123°01'1616.0
2014-Dec-09 19:33N 48°36' W 123°13'1514.8
2014-Dec-09 18:33N 48°22' W 123°21'9 9.1
2014-Dec-09 17:34N 48°14' W 123°26'9 9.0
2014-Dec-09 16:33N 48°10' W 123°14'1818.2
2014-Dec-09 15:33N 48°11' W 122°46'2120.8
2014-Dec-09 14:34N 47°54' W 122°28'2222.1
2014-Dec-09 13:34N 47°32' W 122°26'1515.3
2014-Dec-09 12:33N 47°17' W 122°25'1 0.5
2014-Dec-09 11:29N 47°16' W 122°25'0 0.0
2014-Dec-09 10:29N 47°16' W 122°25'0 0.0
2014-Dec-09 09:32N 47°16' W 122°25'0 0.0
2014-Dec-09 08:32N 47°16' W 122°25'0 0.0
2014-Dec-09 07:32N 47°16' W 122°25'0 0.0
2014-Dec-09 06:32N 47°16' W 122°25'0 0.0
2014-Dec-09 05:29N 47°16' W 122°25'0 0.0
2014-Dec-09 04:32N 47°16' W 122°25'0 0.0
2014-Dec-09 03:32N 47°16' W 122°25'0 0.0
2014-Dec-09 02:32N 47°16' W 122°25'0 0.0
2014-Dec-09 01:32N 47°16' W 122°25'0 0.0
2014-Dec-09 00:32N 47°16' W 122°25'0 0.0
2014-Dec-08 23:20N 47°16' W 122°25'0 0.0
2014-Dec-08 22:20N 47°16' W 122°25'0 0.0
2014-Dec-08 21:23N 47°16' W 122°25'0 0.0
2014-Dec-08 20:32N 47°16' W 122°25'0 0.0
2014-Dec-08 19:29N 47°16' W 122°25'0 0.0
2014-Dec-08 18:20N 47°16' W 122°25'0 0.0
2014-Dec-08 17:08N 47°16' W 122°25'0 0.0
2014-Dec-08 16:26N 47°16' W 122°25'0 0.0
2014-Dec-08 15:32N 47°16' W 122°25'0 0.0
2014-Dec-08 14:11N 47°16' W 122°25'0 0.0
2014-Dec-08 13:29N 47°16' W 122°25'0 0.0
2014-Dec-08 12:29N 47°16' W 122°25'0 0.0
2014-Dec-08 11:23N 47°16' W 122°25'0 0.0
2014-Dec-08 10:23N 47°16' W 122°25'0 0.0
2014-Dec-08 09:29N 47°16' W 122°25'0 0.0
2014-Dec-08 08:29N 47°16' W 122°25'0 0.0
2014-Dec-08 07:23N 47°16' W 122°25'0 0.0
2014-Dec-08 06:32N 47°16' W 122°25'0 0.0
2014-Dec-08 05:32N 47°16' W 122°25'0 0.0
2014-Dec-08 04:14N 47°16' W 122°25'0 0.0
2014-Dec-08 03:17N 47°16' W 122°25'0 0.0
2014-Dec-08 02:32N 47°16' W 122°25'0 0.0
2014-Dec-08 01:32N 47°16' W 122°25'0 0.0
2014-Dec-08 00:20N 47°16' W 122°25'0 0.0
2014-Dec-07 22:26N 47°16' W 122°25'0 0.0
2014-Dec-07 20:26N 47°16' W 122°25'0 0.0
2014-Dec-07 18:20N 47°16' W 122°25'0 0.0
2014-Dec-07 17:29N 47°16' W 122°25'0 0.0
2014-Dec-07 16:32N 47°16' W 122°25'0 0.0
2014-Dec-07 15:32N 47°16' W 122°25'0 0.0
2014-Dec-07 14:29N 47°16' W 122°25'0 0.0
2014-Dec-07 13:29N 47°16' W 122°25'0 0.0
2014-Dec-07 12:32N 47°16' W 122°25'0 0.0
2014-Dec-07 11:32N 47°16' W 122°25'0 0.0
2014-Dec-07 10:32N 47°16' W 122°25'0 0.0
2014-Dec-07 09:32N 47°16' W 122°25'0 0.0
2014-Dec-07 08:32N 47°16' W 122°25'0 0.0
2014-Dec-07 07:32N 47°16' W 122°25'0 0.0
2014-Dec-07 06:32N 47°16' W 122°25'0 0.0
2014-Dec-07 05:32N 47°16' W 122°25'0 0.0
2014-Dec-07 00:26N 47°16' W 122°25'0 0.0
2014-Dec-06 23:23N 47°16' W 122°25'0 0.0
2014-Dec-06 21:29N 47°16' W 122°25'0 0.0
2014-Dec-06 20:29N 47°16' W 122°25'0 0.0
2014-Dec-06 19:23N 47°16' W 122°25'0 0.0
2014-Dec-06 18:23N 47°16' W 122°25'0 0.0
2014-Dec-06 11:29N 47°16' W 122°25'0 0.0
2014-Dec-06 10:26N 47°16' W 122°25'0 0.0
2014-Dec-06 09:32N 47°16' W 122°25'0 0.0
2014-Dec-06 08:32N 47°16' W 122°25'0 0.0
2014-Dec-06 07:32N 47°16' W 122°25'0 0.0
2014-Dec-06 06:26N 47°16' W 122°25'0 0.0
2014-Dec-06 04:32N 47°16' W 122°25'0 0.0
2014-Dec-06 03:32N 47°16' W 122°25'0 0.0
2014-Dec-06 02:29N 47°16' W 122°25'0 0.0
2014-Dec-06 01:29N 47°16' W 122°25'0 0.0
2014-Dec-06 00:11N 47°16' W 122°25'0 0.0
2014-Dec-05 23:05N 47°16' W 122°25'0 0.0
2014-Dec-05 22:32N 47°16' W 122°25'0 0.0
2014-Dec-05 21:32N 47°16' W 122°25'  
Track history (hours):
 
Tides and Currents Weather Stations Pressure Air Temp Water Temp Dewpoint Dewpoint Depression Visibility Wind Speed Wind Dir Waves Ship Positions

Lions Gate Bridge

Last reported at 2014-Dec-15 21:00 UTC. Time now 2014-Dec-19 03:58 UTC.
Position N 54°36' W 168°18'.

Length 284.7 m; beam 40 m.

Type: Cargo ship. MMSI: 351086000.

Wind from 250 at 26 knots

Barometer 986.4 mb
Air temperature 3.0 ° C
Visibility: greater than 5.4 NM
Dewpoint -1.0 ° C

Date/timePositionNaut miles runAvg speedWind from/ knotsBaromVisibWave heightAir tempDewpointWater temp
2014-Dec-15 21:00N 54°36' W 168°18'   250 / 26986.4 5.4 3.0-1.0
2014-Dec-11 14:17N 48°41' W 126°47'1316.7
2014-Dec-11 13:32N 48°39' W 126°28'1716.8
2014-Dec-11 12:33N 48°36' W 126°04'1716.8
2014-Dec-11 11:33N 48°33' W 125°39'1616.3
2014-Dec-11 10:33N 48°31' W 125°15'1616.1
2014-Dec-11 09:33N 48°31' W 124°50'1615.9
2014-Dec-11 08:33N 48°26' W 124°27'1818.4
2014-Dec-11 07:33N 48°19' W 124°02'2019.4
2014-Dec-11 06:33N 48°15' W 123°33'1212.5
2014-Dec-11 05:33N 48°23' W 123°18'1616.0
2014-Dec-11 04:33N 48°39' W 123°15'1413.8
2014-Dec-11 03:34N 48°51' W 123°04'1818.0
2014-Dec-11 02:34N 49°03' W 123°23'1716.5
2014-Dec-11 01:33N 49°19' W 123°16'8 7.7
2014-Dec-11 00:33N 49°17' W 123°05'0 0.0
2014-Dec-10 23:33N 49°17' W 123°05'0 0.0
2014-Dec-10 22:33N 49°17' W 123°05'0 0.0
2014-Dec-10 21:33N 49°17' W 123°05'0 0.0
2014-Dec-10 20:33N 49°17' W 123°05'0 0.0
2014-Dec-10 19:33N 49°17' W 123°05'0 0.0
2014-Dec-10 18:33N 49°17' W 123°05'0 0.0
2014-Dec-10 17:33N 49°17' W 123°05'0 0.0
2014-Dec-10 16:33N 49°17' W 123°05'0 0.0
2014-Dec-10 15:33N 49°17' W 123°05'0 0.0
2014-Dec-10 14:33N 49°17' W 123°05'0 0.0
2014-Dec-10 13:33N 49°17' W 123°05'0 0.0
2014-Dec-10 12:33N 49°17' W 123°05'0 0.0
2014-Dec-10 11:33N 49°17' W 123°05'0 0.0
2014-Dec-10 10:33N 49°17' W 123°05'0 0.0
2014-Dec-10 09:33N 49°17' W 123°05'0 0.0
2014-Dec-10 08:33N 49°17' W 123°05'0 0.0
2014-Dec-10 07:33N 49°17' W 123°05'0 0.0
2014-Dec-10 06:33N 49°17' W 123°05'0 0.0
2014-Dec-10 05:33N 49°17' W 123°05'0 0.0
2014-Dec-10 04:33N 49°17' W 123°05'0 0.0
2014-Dec-10 03:33N 49°17' W 123°05'0 0.0
2014-Dec-10 02:33N 49°17' W 123°05'0 0.0
2014-Dec-10 01:33N 49°17' W 123°05'0 0.0
2014-Dec-10 00:33N 49°17' W 123°05'0 0.0
2014-Dec-09 23:33N 49°17' W 123°05'3 3.0
2014-Dec-09 22:33N 49°19' W 123°08'1514.8
2014-Dec-09 21:33N 49°06' W 123°20'2120.7
2014-Dec-09 20:33N 48°50' W 123°01'1616.0
2014-Dec-09 19:33N 48°36' W 123°13'1514.8
2014-Dec-09 18:33N 48°22' W 123°21'9 9.1
2014-Dec-09 17:34N 48°14' W 123°26'9 9.0
2014-Dec-09 16:33N 48°10' W 123°14'1818.2
2014-Dec-09 15:33N 48°11' W 122°46'2120.8
2014-Dec-09 14:34N 47°54' W 122°28'2222.1
2014-Dec-09 13:34N 47°32' W 122°26'1515.3
2014-Dec-09 12:33N 47°17' W 122°25'1 0.5
2014-Dec-09 11:29N 47°16' W 122°25'0 0.0
2014-Dec-09 10:29N 47°16' W 122°25'0 0.0
2014-Dec-09 09:32N 47°16' W 122°25'0 0.0
2014-Dec-09 08:32N 47°16' W 122°25'0 0.0
2014-Dec-09 07:32N 47°16' W 122°25'0 0.0
2014-Dec-09 06:32N 47°16' W 122°25'0 0.0
2014-Dec-09 05:29N 47°16' W 122°25'0 0.0
2014-Dec-09 04:32N 47°16' W 122°25'0 0.0
2014-Dec-09 03:32N 47°16' W 122°25'0 0.0
2014-Dec-09 02:32N 47°16' W 122°25'0 0.0
2014-Dec-09 01:32N 47°16' W 122°25'0 0.0
2014-Dec-09 00:32N 47°16' W 122°25'0 0.0
2014-Dec-08 23:20N 47°16' W 122°25'0 0.0
2014-Dec-08 22:20N 47°16' W 122°25'0 0.0
2014-Dec-08 21:23N 47°16' W 122°25'0 0.0
2014-Dec-08 20:32N 47°16' W 122°25'0 0.0
2014-Dec-08 19:29N 47°16' W 122°25'0 0.0
2014-Dec-08 18:20N 47°16' W 122°25'0 0.0
2014-Dec-08 17:08N 47°16' W 122°25'0 0.0
2014-Dec-08 16:26N 47°16' W 122°25'0 0.0
2014-Dec-08 15:32N 47°16' W 122°25'0 0.0
2014-Dec-08 14:11N 47°16' W 122°25'0 0.0
2014-Dec-08 13:29N 47°16' W 122°25'0 0.0
2014-Dec-08 12:29N 47°16' W 122°25'0 0.0
2014-Dec-08 11:23N 47°16' W 122°25'0 0.0
2014-Dec-08 10:23N 47°16' W 122°25'0 0.0
2014-Dec-08 09:29N 47°16' W 122°25'0 0.0
2014-Dec-08 08:29N 47°16' W 122°25'0 0.0
2014-Dec-08 07:23N 47°16' W 122°25'0 0.0
2014-Dec-08 06:32N 47°16' W 122°25'0 0.0
2014-Dec-08 05:32N 47°16' W 122°25'0 0.0
2014-Dec-08 04:14N 47°16' W 122°25'0 0.0
2014-Dec-08 03:17N 47°16' W 122°25'0 0.0
2014-Dec-08 02:32N 47°16' W 122°25'0 0.0
2014-Dec-08 01:32N 47°16' W 122°25'0 0.0
2014-Dec-08 00:20N 47°16' W 122°25'0 0.0
2014-Dec-07 22:26N 47°16' W 122°25'0 0.0
2014-Dec-07 20:26N 47°16' W 122°25'0 0.0
2014-Dec-07 18:20N 47°16' W 122°25'0 0.0
2014-Dec-07 17:29N 47°16' W 122°25'0 0.0
2014-Dec-07 16:32N 47°16' W 122°25'0 0.0
2014-Dec-07 15:32N 47°16' W 122°25'0 0.0
2014-Dec-07 14:29N 47°16' W 122°25'0 0.0
2014-Dec-07 13:29N 47°16' W 122°25'0 0.0
2014-Dec-07 12:32N 47°16' W 122°25'0 0.0
2014-Dec-07 11:32N 47°16' W 122°25'0 0.0
2014-Dec-07 10:32N 47°16' W 122°25'0 0.0
2014-Dec-07 09:32N 47°16' W 122°25'0 0.0
2014-Dec-07 08:32N 47°16' W 122°25'0 0.0
2014-Dec-07 07:32N 47°16' W 122°25'0 0.0
2014-Dec-07 06:32N 47°16' W 122°25'0 0.0
2014-Dec-07 05:32N 47°16' W 122°25'0 0.0
2014-Dec-07 00:26N 47°16' W 122°25'0 0.0
2014-Dec-06 23:23N 47°16' W 122°25'0 0.0
2014-Dec-06 21:29N 47°16' W 122°25'0 0.0
2014-Dec-06 20:29N 47°16' W 122°25'0 0.0
2014-Dec-06 19:23N 47°16' W 122°25'0 0.0
2014-Dec-06 18:23N 47°16' W 122°25'0 0.0
2014-Dec-06 11:29N 47°16' W 122°25'0 0.0
2014-Dec-06 10:26N 47°16' W 122°25'0 0.0
2014-Dec-06 09:32N 47°16' W 122°25'0 0.0
2014-Dec-06 08:32N 47°16' W 122°25'0 0.0
2014-Dec-06 07:32N 47°16' W 122°25'0 0.0
2014-Dec-06 06:26N 47°16' W 122°25'0 0.0
2014-Dec-06 04:32N 47°16' W 122°25'0 0.0
2014-Dec-06 03:32N 47°16' W 122°25'0 0.0
2014-Dec-06 02:29N 47°16' W 122°25'0 0.0
2014-Dec-06 01:29N 47°16' W 122°25'0 0.0
2014-Dec-06 00:11N 47°16' W 122°25'0 0.0
2014-Dec-05 23:05N 47°16' W 122°25'0 0.0
2014-Dec-05 22:32N 47°16' W 122°25'0 0.0
2014-Dec-05 21:32N 47°16' W 122°25'  

Dump ship's entire track history